sensor_id;sensor_type;location;lat;lon;timestamp;P1;durP1;ratioP1;P2;durP2;ratioP2
48534;SDS011;34323;52.022;5.686;2023-08-20T00:00:10;8.32;;;3.88;;
48534;SDS011;34323;52.022;5.686;2023-08-20T00:02:37;9.80;;;3.40;;
48534;SDS011;34323;52.022;5.686;2023-08-20T00:05:06;9.70;;;4.30;;
48534;SDS011;34323;52.022;5.686;2023-08-20T00:07:32;8.35;;;3.58;;
48534;SDS011;34323;52.022;5.686;2023-08-20T00:09:58;8.98;;;3.60;;
48534;SDS011;34323;52.022;5.686;2023-08-20T00:12:24;7.38;;;3.65;;
48534;SDS011;34323;52.022;5.686;2023-08-20T00:14:52;9.45;;;3.63;;
48534;SDS011;34323;52.022;5.686;2023-08-20T00:17:23;9.20;;;3.33;;
48534;SDS011;34323;52.022;5.686;2023-08-20T00:19:52;10.18;;;3.90;;
48534;SDS011;34323;52.022;5.686;2023-08-20T00:22:21;11.18;;;3.75;;
48534;SDS011;34323;52.022;5.686;2023-08-20T00:24:48;6.78;;;3.78;;
48534;SDS011;34323;52.022;5.686;2023-08-20T00:27:14;7.80;;;3.85;;
48534;SDS011;34323;52.022;5.686;2023-08-20T00:29:39;7.43;;;3.15;;
48534;SDS011;34323;52.022;5.686;2023-08-20T00:32:05;8.90;;;3.70;;
48534;SDS011;34323;52.022;5.686;2023-08-20T00:34:31;7.97;;;3.03;;
48534;SDS011;34323;52.022;5.686;2023-08-20T00:36:56;6.75;;;3.28;;
48534;SDS011;34323;52.022;5.686;2023-08-20T00:39:22;6.00;;;3.40;;
48534;SDS011;34323;52.022;5.686;2023-08-20T00:41:48;11.85;;;3.85;;
48534;SDS011;34323;52.022;5.686;2023-08-20T00:44:13;7.15;;;3.05;;
48534;SDS011;34323;52.022;5.686;2023-08-20T00:46:39;6.28;;;2.72;;
48534;SDS011;34323;52.022;5.686;2023-08-20T00:49:05;7.63;;;2.90;;
48534;SDS011;34323;52.022;5.686;2023-08-20T00:51:32;5.25;;;2.70;;
48534;SDS011;34323;52.022;5.686;2023-08-20T00:53:59;5.80;;;2.80;;
48534;SDS011;34323;52.022;5.686;2023-08-20T00:58:57;6.63;;;2.95;;
48534;SDS011;34323;52.022;5.686;2023-08-20T01:01:24;9.80;;;3.10;;
48534;SDS011;34323;52.022;5.686;2023-08-20T01:03:49;11.10;;;3.03;;
48534;SDS011;34323;52.022;5.686;2023-08-20T01:06:20;5.07;;;2.65;;
48534;SDS011;34323;52.022;5.686;2023-08-20T01:09:10;4.97;;;2.55;;
48534;SDS011;34323;52.022;5.686;2023-08-20T01:12:00;8.85;;;2.95;;
48534;SDS011;34323;52.022;5.686;2023-08-20T01:14:28;6.40;;;2.50;;
48534;SDS011;34323;52.022;5.686;2023-08-20T01:16:53;9.80;;;2.53;;
48534;SDS011;34323;52.022;5.686;2023-08-20T01:19:20;7.13;;;2.60;;
48534;SDS011;34323;52.022;5.686;2023-08-20T01:27:08;8.32;;;3.00;;
48534;SDS011;34323;52.022;5.686;2023-08-20T01:29:54;6.25;;;2.33;;
48534;SDS011;34323;52.022;5.686;2023-08-20T01:32:21;4.53;;;2.45;;
48534;SDS011;34323;52.022;5.686;2023-08-20T01:34:48;4.90;;;2.20;;
48534;SDS011;34323;52.022;5.686;2023-08-20T01:37:15;6.97;;;2.72;;
48534;SDS011;34323;52.022;5.686;2023-08-20T01:39:41;4.35;;;2.67;;
48534;SDS011;34323;52.022;5.686;2023-08-20T01:42:07;7.82;;;2.90;;
48534;SDS011;34323;52.022;5.686;2023-08-20T01:44:33;12.38;;;2.90;;
48534;SDS011;34323;52.022;5.686;2023-08-20T01:46:58;7.00;;;2.47;;
48534;SDS011;34323;52.022;5.686;2023-08-20T01:49:24;5.38;;;2.40;;
48534;SDS011;34323;52.022;5.686;2023-08-20T01:51:50;9.57;;;3.05;;
48534;SDS011;34323;52.022;5.686;2023-08-20T01:54:15;6.65;;;2.72;;
48534;SDS011;34323;52.022;5.686;2023-08-20T01:56:42;6.65;;;2.47;;
48534;SDS011;34323;52.022;5.686;2023-08-20T01:59:08;11.75;;;2.45;;
48534;SDS011;34323;52.022;5.686;2023-08-20T02:01:33;4.25;;;2.50;;
48534;SDS011;34323;52.022;5.686;2023-08-20T02:03:59;9.77;;;3.25;;
48534;SDS011;34323;52.022;5.686;2023-08-20T02:06:25;5.05;;;2.17;;
48534;SDS011;34323;52.022;5.686;2023-08-20T02:08:51;5.65;;;2.38;;
48534;SDS011;34323;52.022;5.686;2023-08-20T02:11:16;6.85;;;2.35;;
48534;SDS011;34323;52.022;5.686;2023-08-20T02:13:42;7.13;;;2.40;;
48534;SDS011;34323;52.022;5.686;2023-08-20T02:16:08;4.63;;;2.05;;
48534;SDS011;34323;52.022;5.686;2023-08-20T02:18:34;7.82;;;2.97;;
48534;SDS011;34323;52.022;5.686;2023-08-20T02:20:59;5.85;;;2.38;;
48534;SDS011;34323;52.022;5.686;2023-08-20T02:23:25;5.88;;;2.30;;
48534;SDS011;34323;52.022;5.686;2023-08-20T02:25:51;11.77;;;2.60;;
48534;SDS011;34323;52.022;5.686;2023-08-20T02:28:17;7.03;;;2.50;;
48534;SDS011;34323;52.022;5.686;2023-08-20T02:30:43;7.13;;;2.60;;
48534;SDS011;34323;52.022;5.686;2023-08-20T02:33:10;4.30;;;2.30;;
48534;SDS011;34323;52.022;5.686;2023-08-20T02:35:36;14.23;;;3.08;;
48534;SDS011;34323;52.022;5.686;2023-08-20T02:38:03;7.60;;;2.55;;
48534;SDS011;34323;52.022;5.686;2023-08-20T02:40:29;6.53;;;2.35;;
48534;SDS011;34323;52.022;5.686;2023-08-20T02:42:55;8.65;;;2.92;;
48534;SDS011;34323;52.022;5.686;2023-08-20T02:45:20;10.95;;;2.72;;
48534;SDS011;34323;52.022;5.686;2023-08-20T02:47:46;10.85;;;2.88;;
48534;SDS011;34323;52.022;5.686;2023-08-20T02:50:11;9.73;;;3.50;;
48534;SDS011;34323;52.022;5.686;2023-08-20T02:52:37;10.32;;;3.45;;
48534;SDS011;34323;52.022;5.686;2023-08-20T02:55:03;6.07;;;2.60;;
48534;SDS011;34323;52.022;5.686;2023-08-20T02:57:32;9.88;;;2.90;;
48534;SDS011;34323;52.022;5.686;2023-08-20T02:59:57;9.27;;;2.80;;
48534;SDS011;34323;52.022;5.686;2023-08-20T03:02:23;7.90;;;2.70;;
48534;SDS011;34323;52.022;5.686;2023-08-20T03:04:49;12.77;;;4.63;;
48534;SDS011;34323;52.022;5.686;2023-08-20T03:07:15;6.57;;;3.40;;
48534;SDS011;34323;52.022;5.686;2023-08-20T03:09:41;6.03;;;2.63;;
48534;SDS011;34323;52.022;5.686;2023-08-20T03:12:06;9.30;;;3.15;;
48534;SDS011;34323;52.022;5.686;2023-08-20T03:14:32;11.60;;;2.92;;
48534;SDS011;34323;52.022;5.686;2023-08-20T03:16:58;5.80;;;2.33;;
48534;SDS011;34323;52.022;5.686;2023-08-20T03:19:23;5.68;;;2.70;;
48534;SDS011;34323;52.022;5.686;2023-08-20T03:21:49;7.85;;;2.38;;
48534;SDS011;34323;52.022;5.686;2023-08-20T03:24:15;5.63;;;2.80;;
48534;SDS011;34323;52.022;5.686;2023-08-20T03:26:40;7.03;;;2.88;;
48534;SDS011;34323;52.022;5.686;2023-08-20T03:29:06;6.50;;;2.53;;
48534;SDS011;34323;52.022;5.686;2023-08-20T03:31:32;8.80;;;2.80;;
48534;SDS011;34323;52.022;5.686;2023-08-20T03:33:58;7.63;;;2.95;;
48534;SDS011;34323;52.022;5.686;2023-08-20T03:36:23;9.20;;;2.97;;
48534;SDS011;34323;52.022;5.686;2023-08-20T03:38:49;10.40;;;2.70;;
48534;SDS011;34323;52.022;5.686;2023-08-20T03:41:15;10.48;;;3.15;;
48534;SDS011;34323;52.022;5.686;2023-08-20T03:43:42;7.63;;;3.00;;
48534;SDS011;34323;52.022;5.686;2023-08-20T03:46:07;7.35;;;2.97;;
48534;SDS011;34323;52.022;5.686;2023-08-20T03:48:33;6.97;;;2.88;;
48534;SDS011;34323;52.022;5.686;2023-08-20T03:50:59;4.25;;;2.42;;
48534;SDS011;34323;52.022;5.686;2023-08-20T03:53:25;8.93;;;3.08;;
48534;SDS011;34323;52.022;5.686;2023-08-20T03:55:50;5.32;;;2.75;;
48534;SDS011;34323;52.022;5.686;2023-08-20T03:58:16;12.82;;;2.90;;
48534;SDS011;34323;52.022;5.686;2023-08-20T04:00:43;8.10;;;2.72;;
48534;SDS011;34323;52.022;5.686;2023-08-20T04:03:09;5.20;;;2.50;;
48534;SDS011;34323;52.022;5.686;2023-08-20T04:05:35;8.60;;;3.10;;
48534;SDS011;34323;52.022;5.686;2023-08-20T04:08:03;9.95;;;2.78;;
48534;SDS011;34323;52.022;5.686;2023-08-20T04:10:29;6.72;;;3.30;;
48534;SDS011;34323;52.022;5.686;2023-08-20T04:12:55;7.30;;;2.92;;
48534;SDS011;34323;52.022;5.686;2023-08-20T04:15:20;8.32;;;2.65;;
48534;SDS011;34323;52.022;5.686;2023-08-20T04:17:46;5.55;;;2.70;;
48534;SDS011;34323;52.022;5.686;2023-08-20T04:20:13;8.07;;;3.08;;
48534;SDS011;34323;52.022;5.686;2023-08-20T04:22:39;9.90;;;3.30;;
48534;SDS011;34323;52.022;5.686;2023-08-20T04:25:05;8.10;;;2.95;;
48534;SDS011;34323;52.022;5.686;2023-08-20T04:27:31;3.78;;;2.42;;
48534;SDS011;34323;52.022;5.686;2023-08-20T04:29:57;12.95;;;3.20;;
48534;SDS011;34323;52.022;5.686;2023-08-20T04:32:23;9.10;;;3.15;;
48534;SDS011;34323;52.022;5.686;2023-08-20T04:34:49;6.20;;;2.60;;
48534;SDS011;34323;52.022;5.686;2023-08-20T04:37:18;7.78;;;3.00;;
48534;SDS011;34323;52.022;5.686;2023-08-20T04:39:44;7.18;;;3.10;;
48534;SDS011;34323;52.022;5.686;2023-08-20T04:42:10;8.35;;;3.30;;
48534;SDS011;34323;52.022;5.686;2023-08-20T04:44:36;7.63;;;3.25;;
48534;SDS011;34323;52.022;5.686;2023-08-20T04:47:02;8.50;;;2.97;;
48534;SDS011;34323;52.022;5.686;2023-08-20T04:49:27;10.52;;;3.35;;
48534;SDS011;34323;52.022;5.686;2023-08-20T04:51:55;12.88;;;3.67;;
48534;SDS011;34323;52.022;5.686;2023-08-20T04:54:21;8.50;;;3.75;;
48534;SDS011;34323;52.022;5.686;2023-08-20T04:56:46;12.15;;;3.75;;
48534;SDS011;34323;52.022;5.686;2023-08-20T04:59:12;9.77;;;3.60;;
48534;SDS011;34323;52.022;5.686;2023-08-20T05:01:38;9.23;;;3.60;;
48534;SDS011;34323;52.022;5.686;2023-08-20T05:04:04;8.35;;;3.72;;
48534;SDS011;34323;52.022;5.686;2023-08-20T05:06:31;13.55;;;3.42;;
48534;SDS011;34323;52.022;5.686;2023-08-20T05:08:56;11.52;;;3.50;;
48534;SDS011;34323;52.022;5.686;2023-08-20T05:11:22;4.15;;;2.70;;
48534;SDS011;34323;52.022;5.686;2023-08-20T05:13:49;5.75;;;2.88;;
48534;SDS011;34323;52.022;5.686;2023-08-20T05:16:15;7.55;;;3.60;;
48534;SDS011;34323;52.022;5.686;2023-08-20T05:18:41;8.40;;;3.03;;
48534;SDS011;34323;52.022;5.686;2023-08-20T05:21:07;6.15;;;3.33;;
48534;SDS011;34323;52.022;5.686;2023-08-20T05:23:33;7.57;;;3.40;;
48534;SDS011;34323;52.022;5.686;2023-08-20T05:25:59;11.10;;;3.90;;
48534;SDS011;34323;52.022;5.686;2023-08-20T05:28:24;9.45;;;3.60;;
48534;SDS011;34323;52.022;5.686;2023-08-20T05:30:54;5.55;;;3.38;;
48534;SDS011;34323;52.022;5.686;2023-08-20T05:33:21;8.95;;;4.32;;
48534;SDS011;34323;52.022;5.686;2023-08-20T05:35:47;7.53;;;4.25;;
48534;SDS011;34323;52.022;5.686;2023-08-20T05:38:13;9.07;;;4.30;;
48534;SDS011;34323;52.022;5.686;2023-08-20T05:40:38;12.43;;;4.15;;
48534;SDS011;34323;52.022;5.686;2023-08-20T05:43:04;14.80;;;5.18;;
48534;SDS011;34323;52.022;5.686;2023-08-20T05:45:30;10.75;;;4.43;;
48534;SDS011;34323;52.022;5.686;2023-08-20T05:47:56;7.85;;;3.83;;
48534;SDS011;34323;52.022;5.686;2023-08-20T05:50:21;12.80;;;4.25;;
48534;SDS011;34323;52.022;5.686;2023-08-20T05:52:47;8.93;;;4.03;;
48534;SDS011;34323;52.022;5.686;2023-08-20T05:55:13;10.43;;;4.03;;
48534;SDS011;34323;52.022;5.686;2023-08-20T05:57:39;8.75;;;4.13;;
48534;SDS011;34323;52.022;5.686;2023-08-20T06:00:06;5.03;;;3.10;;
48534;SDS011;34323;52.022;5.686;2023-08-20T06:02:32;9.52;;;4.13;;
48534;SDS011;34323;52.022;5.686;2023-08-20T06:04:58;11.32;;;4.35;;
48534;SDS011;34323;52.022;5.686;2023-08-20T06:07:24;13.27;;;4.75;;
48534;SDS011;34323;52.022;5.686;2023-08-20T06:09:50;10.98;;;5.07;;
48534;SDS011;34323;52.022;5.686;2023-08-20T06:12:16;13.70;;;5.35;;
48534;SDS011;34323;52.022;5.686;2023-08-20T06:14:42;20.85;;;6.50;;
48534;SDS011;34323;52.022;5.686;2023-08-20T06:17:08;15.60;;;7.15;;
48534;SDS011;34323;52.022;5.686;2023-08-20T06:19:34;16.77;;;7.28;;
48534;SDS011;34323;52.022;5.686;2023-08-20T06:21:59;14.68;;;7.28;;
48534;SDS011;34323;52.022;5.686;2023-08-20T06:24:25;17.27;;;8.05;;
48534;SDS011;34323;52.022;5.686;2023-08-20T06:26:51;12.20;;;6.60;;
48534;SDS011;34323;52.022;5.686;2023-08-20T06:29:17;12.07;;;7.68;;
48534;SDS011;34323;52.022;5.686;2023-08-20T06:31:43;14.65;;;7.10;;
48534;SDS011;34323;52.022;5.686;2023-08-20T06:34:09;14.68;;;7.15;;
48534;SDS011;34323;52.022;5.686;2023-08-20T06:36:35;18.95;;;7.38;;
48534;SDS011;34323;52.022;5.686;2023-08-20T06:39:01;16.15;;;6.25;;
48534;SDS011;34323;52.022;5.686;2023-08-20T06:41:27;10.55;;;6.25;;
48534;SDS011;34323;52.022;5.686;2023-08-20T06:43:52;14.85;;;6.10;;
48534;SDS011;34323;52.022;5.686;2023-08-20T06:46:18;14.95;;;6.15;;
48534;SDS011;34323;52.022;5.686;2023-08-20T06:48:44;17.58;;;6.82;;
48534;SDS011;34323;52.022;5.686;2023-08-20T06:51:13;15.00;;;6.75;;
48534;SDS011;34323;52.022;5.686;2023-08-20T06:53:40;17.88;;;6.50;;
48534;SDS011;34323;52.022;5.686;2023-08-20T06:56:07;13.18;;;6.53;;
48534;SDS011;34323;52.022;5.686;2023-08-20T06:58:34;14.73;;;6.55;;
48534;SDS011;34323;52.022;5.686;2023-08-20T07:01:01;14.20;;;6.65;;
48534;SDS011;34323;52.022;5.686;2023-08-20T07:03:42;10.57;;;5.35;;
48534;SDS011;34323;52.022;5.686;2023-08-20T07:06:09;17.98;;;6.60;;
48534;SDS011;34323;52.022;5.686;2023-08-20T07:08:35;16.05;;;5.88;;
48534;SDS011;34323;52.022;5.686;2023-08-20T07:11:03;13.57;;;5.68;;
48534;SDS011;34323;52.022;5.686;2023-08-20T07:13:29;14.30;;;5.20;;
48534;SDS011;34323;52.022;5.686;2023-08-20T07:15:55;11.70;;;4.75;;
48534;SDS011;34323;52.022;5.686;2023-08-20T07:18:20;11.90;;;5.32;;
48534;SDS011;34323;52.022;5.686;2023-08-20T07:20:46;15.48;;;5.10;;
48534;SDS011;34323;52.022;5.686;2023-08-20T07:23:12;7.97;;;4.32;;
48534;SDS011;34323;52.022;5.686;2023-08-20T07:25:39;12.13;;;4.55;;
48534;SDS011;34323;52.022;5.686;2023-08-20T07:28:06;16.67;;;4.50;;
48534;SDS011;34323;52.022;5.686;2023-08-20T07:30:32;14.73;;;4.43;;
48534;SDS011;34323;52.022;5.686;2023-08-20T07:32:58;13.50;;;4.35;;
48534;SDS011;34323;52.022;5.686;2023-08-20T07:35:24;15.82;;;4.15;;
48534;SDS011;34323;52.022;5.686;2023-08-20T07:37:50;7.13;;;4.05;;
48534;SDS011;34323;52.022;5.686;2023-08-20T07:40:16;10.88;;;4.18;;
48534;SDS011;34323;52.022;5.686;2023-08-20T07:42:42;12.23;;;3.55;;
48534;SDS011;34323;52.022;5.686;2023-08-20T07:45:09;13.68;;;3.50;;
48534;SDS011;34323;52.022;5.686;2023-08-20T07:47:35;8.68;;;3.05;;
48534;SDS011;34323;52.022;5.686;2023-08-20T07:50:02;10.63;;;3.58;;
48534;SDS011;34323;52.022;5.686;2023-08-20T07:52:29;11.93;;;3.13;;
48534;SDS011;34323;52.022;5.686;2023-08-20T07:54:55;8.75;;;3.42;;
48534;SDS011;34323;52.022;5.686;2023-08-20T07:57:24;12.73;;;3.25;;
48534;SDS011;34323;52.022;5.686;2023-08-20T07:59:50;10.85;;;3.03;;
48534;SDS011;34323;52.022;5.686;2023-08-20T08:02:16;14.70;;;3.78;;
48534;SDS011;34323;52.022;5.686;2023-08-20T08:04:43;11.68;;;2.22;;
48534;SDS011;34323;52.022;5.686;2023-08-20T08:07:09;14.20;;;3.38;;
48534;SDS011;34323;52.022;5.686;2023-08-20T08:09:36;9.98;;;2.70;;
48534;SDS011;34323;52.022;5.686;2023-08-20T08:12:02;11.68;;;2.88;;
48534;SDS011;34323;52.022;5.686;2023-08-20T08:14:29;14.05;;;3.35;;
48534;SDS011;34323;52.022;5.686;2023-08-20T08:16:55;8.52;;;2.78;;
48534;SDS011;34323;52.022;5.686;2023-08-20T08:19:20;13.45;;;3.00;;
48534;SDS011;34323;52.022;5.686;2023-08-20T08:21:46;7.97;;;2.80;;
48534;SDS011;34323;52.022;5.686;2023-08-20T08:24:12;7.22;;;2.10;;
48534;SDS011;34323;52.022;5.686;2023-08-20T08:26:39;7.28;;;2.03;;
48534;SDS011;34323;52.022;5.686;2023-08-20T08:29:06;10.98;;;2.22;;
48534;SDS011;34323;52.022;5.686;2023-08-20T08:31:32;13.25;;;2.35;;
48534;SDS011;34323;52.022;5.686;2023-08-20T08:33:59;6.63;;;2.15;;
48534;SDS011;34323;52.022;5.686;2023-08-20T08:36:25;6.40;;;1.80;;
48534;SDS011;34323;52.022;5.686;2023-08-20T08:38:51;8.65;;;1.60;;
48534;SDS011;34323;52.022;5.686;2023-08-20T08:41:17;8.88;;;1.83;;
48534;SDS011;34323;52.022;5.686;2023-08-20T08:43:46;7.95;;;1.35;;
48534;SDS011;34323;52.022;5.686;2023-08-20T08:46:14;4.38;;;1.52;;
48534;SDS011;34323;52.022;5.686;2023-08-20T08:48:40;7.13;;;1.83;;
48534;SDS011;34323;52.022;5.686;2023-08-20T08:51:11;5.72;;;2.13;;
48534;SDS011;34323;52.022;5.686;2023-08-20T08:53:38;10.38;;;2.17;;
48534;SDS011;34323;52.022;5.686;2023-08-20T08:56:04;5.47;;;1.90;;
48534;SDS011;34323;52.022;5.686;2023-08-20T08:58:32;4.88;;;1.50;;
48534;SDS011;34323;52.022;5.686;2023-08-20T09:00:59;6.45;;;1.63;;
48534;SDS011;34323;52.022;5.686;2023-08-20T09:03:25;4.57;;;1.38;;
48534;SDS011;34323;52.022;5.686;2023-08-20T09:05:55;3.88;;;1.20;;
48534;SDS011;34323;52.022;5.686;2023-08-20T09:08:28;4.43;;;1.30;;
48534;SDS011;34323;52.022;5.686;2023-08-20T09:10:56;5.10;;;1.50;;
48534;SDS011;34323;52.022;5.686;2023-08-20T09:13:32;8.98;;;1.67;;
48534;SDS011;34323;52.022;5.686;2023-08-20T09:16:06;3.28;;;1.15;;
48534;SDS011;34323;52.022;5.686;2023-08-20T09:21:06;3.58;;;1.05;;
48534;SDS011;34323;52.022;5.686;2023-08-20T09:23:33;5.80;;;1.50;;
48534;SDS011;34323;52.022;5.686;2023-08-20T09:26:01;5.28;;;1.30;;
48534;SDS011;34323;52.022;5.686;2023-08-20T09:28:28;1.83;;;0.70;;
48534;SDS011;34323;52.022;5.686;2023-08-20T09:30:57;2.22;;;0.77;;
48534;SDS011;34323;52.022;5.686;2023-08-20T09:33:23;4.43;;;1.25;;
48534;SDS011;34323;52.022;5.686;2023-08-20T09:35:50;6.70;;;0.98;;
48534;SDS011;34323;52.022;5.686;2023-08-20T09:38:18;4.60;;;0.90;;
48534;SDS011;34323;52.022;5.686;2023-08-20T09:40:48;2.55;;;1.00;;
48534;SDS011;34323;52.022;5.686;2023-08-20T09:43:18;4.43;;;0.80;;
48534;SDS011;34323;52.022;5.686;2023-08-20T09:45:46;4.95;;;0.95;;
48534;SDS011;34323;52.022;5.686;2023-08-20T09:48:18;5.00;;;1.20;;
48534;SDS011;34323;52.022;5.686;2023-08-20T09:50:48;2.13;;;1.10;;
48534;SDS011;34323;52.022;5.686;2023-08-20T09:53:19;3.63;;;0.70;;
48534;SDS011;34323;52.022;5.686;2023-08-20T09:56:03;6.80;;;1.30;;
48534;SDS011;34323;52.022;5.686;2023-08-20T09:59:00;3.42;;;0.93;;
48534;SDS011;34323;52.022;5.686;2023-08-20T10:01:26;6.93;;;1.33;;
48534;SDS011;34323;52.022;5.686;2023-08-20T10:03:53;3.30;;;0.60;;
48534;SDS011;34323;52.022;5.686;2023-08-20T10:06:19;1.90;;;0.70;;
48534;SDS011;34323;52.022;5.686;2023-08-20T10:08:46;2.60;;;1.08;;
48534;SDS011;34323;52.022;5.686;2023-08-20T10:11:12;3.33;;;0.90;;
48534;SDS011;34323;52.022;5.686;2023-08-20T10:13:38;4.85;;;0.77;;
48534;SDS011;34323;52.022;5.686;2023-08-20T10:16:04;5.47;;;0.70;;
48534;SDS011;34323;52.022;5.686;2023-08-20T10:18:30;4.57;;;1.17;;
48534;SDS011;34323;52.022;5.686;2023-08-20T10:20:59;4.57;;;1.15;;
48534;SDS011;34323;52.022;5.686;2023-08-20T10:23:26;3.33;;;0.80;;
48534;SDS011;34323;52.022;5.686;2023-08-20T10:25:52;1.80;;;0.70;;
48534;SDS011;34323;52.022;5.686;2023-08-20T10:28:22;4.43;;;1.00;;
48534;SDS011;34323;52.022;5.686;2023-08-20T10:36:22;2.27;;;0.77;;
48534;SDS011;34323;52.022;5.686;2023-08-20T10:38:54;5.18;;;0.95;;
48534;SDS011;34323;52.022;5.686;2023-08-20T10:41:27;3.53;;;0.65;;
48534;SDS011;34323;52.022;5.686;2023-08-20T10:43:57;2.03;;;0.52;;
48534;SDS011;34323;52.022;5.686;2023-08-20T10:46:23;2.75;;;0.90;;
48534;SDS011;34323;52.022;5.686;2023-08-20T10:48:51;2.85;;;1.00;;
48534;SDS011;34323;52.022;5.686;2023-08-20T10:51:28;1.10;;;0.55;;
48534;SDS011;34323;52.022;5.686;2023-08-20T10:56:41;7.60;;;1.13;;
48534;SDS011;34323;52.022;5.686;2023-08-20T10:59:23;4.05;;;1.27;;
48534;SDS011;34323;52.022;5.686;2023-08-20T11:01:52;5.90;;;1.10;;
48534;SDS011;34323;52.022;5.686;2023-08-20T11:04:20;3.08;;;0.80;;
48534;SDS011;34323;52.022;5.686;2023-08-20T11:06:52;3.47;;;0.88;;
48534;SDS011;34323;52.022;5.686;2023-08-20T11:09:23;3.35;;;0.75;;
48534;SDS011;34323;52.022;5.686;2023-08-20T11:11:51;6.95;;;1.38;;
48534;SDS011;34323;52.022;5.686;2023-08-20T11:14:17;4.80;;;1.33;;
48534;SDS011;34323;52.022;5.686;2023-08-20T11:16:44;2.70;;;0.77;;
48534;SDS011;34323;52.022;5.686;2023-08-20T11:19:11;3.65;;;1.02;;
48534;SDS011;34323;52.022;5.686;2023-08-20T11:21:38;4.57;;;1.13;;
48534;SDS011;34323;52.022;5.686;2023-08-20T11:24:05;3.25;;;1.02;;
48534;SDS011;34323;52.022;5.686;2023-08-20T11:26:34;5.03;;;1.45;;
48534;SDS011;34323;52.022;5.686;2023-08-20T11:29:01;5.88;;;0.80;;
48534;SDS011;34323;52.022;5.686;2023-08-20T11:31:33;9.82;;;1.00;;
48534;SDS011;34323;52.022;5.686;2023-08-20T11:33:59;4.68;;;0.98;;
48534;SDS011;34323;52.022;5.686;2023-08-20T11:36:26;4.10;;;1.00;;
48534;SDS011;34323;52.022;5.686;2023-08-20T11:38:52;5.72;;;1.75;;
48534;SDS011;34323;52.022;5.686;2023-08-20T11:41:19;4.30;;;0.80;;
48534;SDS011;34323;52.022;5.686;2023-08-20T11:43:46;3.30;;;0.85;;
48534;SDS011;34323;52.022;5.686;2023-08-20T11:46:13;7.55;;;0.95;;
48534;SDS011;34323;52.022;5.686;2023-08-20T11:48:58;3.83;;;1.15;;
48534;SDS011;34323;52.022;5.686;2023-08-20T11:51:25;3.72;;;1.17;;
48534;SDS011;34323;52.022;5.686;2023-08-20T11:53:52;2.88;;;0.90;;
48534;SDS011;34323;52.022;5.686;2023-08-20T11:56:17;3.75;;;0.93;;
48534;SDS011;34323;52.022;5.686;2023-08-20T11:58:43;2.25;;;0.80;;
48534;SDS011;34323;52.022;5.686;2023-08-20T12:01:14;2.42;;;0.80;;
48534;SDS011;34323;52.022;5.686;2023-08-20T12:03:40;6.38;;;0.93;;
48534;SDS011;34323;52.022;5.686;2023-08-20T12:06:18;4.30;;;0.82;;
48534;SDS011;34323;52.022;5.686;2023-08-20T12:08:52;6.90;;;1.10;;
48534;SDS011;34323;52.022;5.686;2023-08-20T12:11:18;8.30;;;0.90;;
48534;SDS011;34323;52.022;5.686;2023-08-20T12:13:48;5.25;;;0.75;;
48534;SDS011;34323;52.022;5.686;2023-08-20T12:16:14;2.80;;;0.75;;
48534;SDS011;34323;52.022;5.686;2023-08-20T12:18:40;5.95;;;1.10;;
48534;SDS011;34323;52.022;5.686;2023-08-20T12:21:05;4.82;;;0.98;;
48534;SDS011;34323;52.022;5.686;2023-08-20T12:23:31;3.53;;;1.00;;
48534;SDS011;34323;52.022;5.686;2023-08-20T12:26:03;4.57;;;1.30;;
48534;SDS011;34323;52.022;5.686;2023-08-20T12:28:29;1.15;;;0.47;;
48534;SDS011;34323;52.022;5.686;2023-08-20T12:30:54;3.35;;;0.63;;
48534;SDS011;34323;52.022;5.686;2023-08-20T12:33:20;4.20;;;0.88;;
48534;SDS011;34323;52.022;5.686;2023-08-20T12:35:46;12.48;;;1.92;;
48534;SDS011;34323;52.022;5.686;2023-08-20T12:38:14;7.50;;;0.98;;
48534;SDS011;34323;52.022;5.686;2023-08-20T12:40:40;5.43;;;1.15;;
48534;SDS011;34323;52.022;5.686;2023-08-20T12:43:06;4.35;;;0.80;;
48534;SDS011;34323;52.022;5.686;2023-08-20T12:45:31;2.33;;;0.68;;
48534;SDS011;34323;52.022;5.686;2023-08-20T12:47:57;4.22;;;0.93;;
48534;SDS011;34323;52.022;5.686;2023-08-20T12:50:22;5.05;;;0.90;;
48534;SDS011;34323;52.022;5.686;2023-08-20T12:52:50;7.13;;;1.30;;
48534;SDS011;34323;52.022;5.686;2023-08-20T12:55:16;8.40;;;1.17;;
48534;SDS011;34323;52.022;5.686;2023-08-20T12:57:52;5.50;;;1.15;;
48534;SDS011;34323;52.022;5.686;2023-08-20T13:00:19;7.40;;;1.00;;
48534;SDS011;34323;52.022;5.686;2023-08-20T13:02:46;3.40;;;1.02;;
48534;SDS011;34323;52.022;5.686;2023-08-20T13:05:11;4.90;;;0.80;;
48534;SDS011;34323;52.022;5.686;2023-08-20T13:07:38;3.20;;;0.80;;
48534;SDS011;34323;52.022;5.686;2023-08-20T13:10:07;4.10;;;1.00;;
48534;SDS011;34323;52.022;5.686;2023-08-20T13:12:36;5.10;;;1.08;;
48534;SDS011;34323;52.022;5.686;2023-08-20T13:15:02;2.90;;;0.73;;
48534;SDS011;34323;52.022;5.686;2023-08-20T13:17:29;4.65;;;0.90;;
48534;SDS011;34323;52.022;5.686;2023-08-20T13:19:55;9.73;;;1.05;;
48534;SDS011;34323;52.022;5.686;2023-08-20T13:22:21;4.63;;;0.85;;
48534;SDS011;34323;52.022;5.686;2023-08-20T13:24:47;4.25;;;1.00;;
48534;SDS011;34323;52.022;5.686;2023-08-20T13:27:12;3.08;;;0.90;;
48534;SDS011;34323;52.022;5.686;2023-08-20T13:29:38;6.40;;;1.40;;
48534;SDS011;34323;52.022;5.686;2023-08-20T13:32:05;4.15;;;0.85;;
48534;SDS011;34323;52.022;5.686;2023-08-20T13:34:31;10.15;;;1.77;;
48534;SDS011;34323;52.022;5.686;2023-08-20T13:36:57;3.40;;;0.75;;
48534;SDS011;34323;52.022;5.686;2023-08-20T13:39:22;2.03;;;0.65;;
48534;SDS011;34323;52.022;5.686;2023-08-20T13:41:49;3.20;;;0.77;;
48534;SDS011;34323;52.022;5.686;2023-08-20T13:44:15;8.02;;;1.10;;
48534;SDS011;34323;52.022;5.686;2023-08-20T13:46:41;2.95;;;0.80;;
48534;SDS011;34323;52.022;5.686;2023-08-20T13:49:06;5.25;;;1.17;;
48534;SDS011;34323;52.022;5.686;2023-08-20T13:51:32;2.75;;;0.88;;
48534;SDS011;34323;52.022;5.686;2023-08-20T13:53:58;6.68;;;1.65;;
48534;SDS011;34323;52.022;5.686;2023-08-20T13:56:23;3.10;;;1.15;;
48534;SDS011;34323;52.022;5.686;2023-08-20T13:58:50;3.85;;;0.98;;
48534;SDS011;34323;52.022;5.686;2023-08-20T14:01:17;3.30;;;1.10;;
48534;SDS011;34323;52.022;5.686;2023-08-20T14:03:42;3.53;;;0.98;;
48534;SDS011;34323;52.022;5.686;2023-08-20T14:06:08;6.50;;;1.20;;
48534;SDS011;34323;52.022;5.686;2023-08-20T14:08:33;5.18;;;1.25;;
48534;SDS011;34323;52.022;5.686;2023-08-20T14:10:59;3.15;;;0.93;;
48534;SDS011;34323;52.022;5.686;2023-08-20T14:13:25;5.20;;;1.40;;
48534;SDS011;34323;52.022;5.686;2023-08-20T14:15:50;3.08;;;1.13;;
48534;SDS011;34323;52.022;5.686;2023-08-20T14:18:16;4.00;;;1.00;;
48534;SDS011;34323;52.022;5.686;2023-08-20T14:20:41;3.00;;;1.20;;
48534;SDS011;34323;52.022;5.686;2023-08-20T14:23:07;6.70;;;1.60;;
48534;SDS011;34323;52.022;5.686;2023-08-20T14:25:32;5.18;;;1.02;;
48534;SDS011;34323;52.022;5.686;2023-08-20T14:27:58;5.60;;;1.20;;
48534;SDS011;34323;52.022;5.686;2023-08-20T14:30:24;4.53;;;1.33;;
48534;SDS011;34323;52.022;5.686;2023-08-20T14:32:49;5.00;;;0.95;;
48534;SDS011;34323;52.022;5.686;2023-08-20T14:35:15;7.35;;;1.40;;
48534;SDS011;34323;52.022;5.686;2023-08-20T14:37:40;4.63;;;0.82;;
48534;SDS011;34323;52.022;5.686;2023-08-20T14:40:06;6.70;;;1.35;;
48534;SDS011;34323;52.022;5.686;2023-08-20T14:42:34;4.72;;;0.90;;
48534;SDS011;34323;52.022;5.686;2023-08-20T14:45:00;4.43;;;0.95;;
48534;SDS011;34323;52.022;5.686;2023-08-20T14:47:25;3.05;;;0.88;;
48534;SDS011;34323;52.022;5.686;2023-08-20T14:49:51;3.35;;;0.70;;
48534;SDS011;34323;52.022;5.686;2023-08-20T14:52:17;5.75;;;1.05;;
48534;SDS011;34323;52.022;5.686;2023-08-20T14:54:42;6.78;;;1.15;;
48534;SDS011;34323;52.022;5.686;2023-08-20T14:57:08;5.38;;;1.60;;
48534;SDS011;34323;52.022;5.686;2023-08-20T14:59:33;9.48;;;1.15;;
48534;SDS011;34323;52.022;5.686;2023-08-20T15:01:59;5.75;;;1.30;;